Orbital elements of OBJECT D
| Launched | 6 December 2018 |
| Flight ended | – |
| Launch site | Jiuquan Space Center, PRC |
| Owner | |
| NORAD ID | 43834 |
| Date fetched |
Epoch osculation |
Inc. [°] |
Ecc. | RA asc node [hr] |
Arg Peri. [°] |
Mean anom [°] |
Mean motion [rev/day] |
Abs. mag |
| Date fetched |
Epoch osculation |
Inc. [°] |
Ecc. | RA asc node [hr] |
Arg Peri. [°] |
Mean anom [°] |
Mean motion [rev/day] |
Abs. mag |
| 2026 May 01 17:56 | 2026 Apr 30 14:51:48 | 97.3448 | 0.00046 | 13.8555 | 220.9254 | 139.1661 | 15.61391 | – |
| 2026 Apr 30 17:56 | 2026 Apr 30 14:51:48 | 97.3448 | 0.00046 | 13.8555 | 220.9254 | 139.1661 | 15.61391 | – |
| 2026 Apr 29 17:57 | 2026 Apr 24 12:42:34 | 97.3438 | 0.00041 | 13.4349 | 239.9603 | 139.1661 | 15.61391 | – |
| 2026 Apr 28 17:56 | 2026 Apr 24 12:42:34 | 97.3438 | 0.00041 | 13.4349 | 239.9603 | 139.1661 | 15.61391 | – |
| 2026 Apr 27 17:58 | 2026 Apr 24 12:42:34 | 97.3438 | 0.00041 | 13.4349 | 239.9603 | 139.1661 | 15.61391 | – |
| 2026 Apr 26 17:58 | 2026 Apr 24 12:42:34 | 97.3438 | 0.00041 | 13.4349 | 239.9603 | 139.1661 | 15.61391 | – |
| 2026 Apr 25 17:58 | 2026 Apr 24 12:42:34 | 97.3438 | 0.00041 | 13.4349 | 239.9603 | 139.1661 | 15.61391 | – |
| 2026 Apr 24 17:59 | 2026 Apr 24 12:42:34 | 97.3438 | 0.00041 | 13.4349 | 239.9603 | 139.1661 | 15.61391 | – |
| 2026 Apr 23 17:57 | 2026 Apr 19 12:39:48 | 97.3445 | 0.00037 | 13.0897 | 261.3146 | 139.1661 | 15.61391 | – |
| 2026 Apr 22 17:57 | 2026 Apr 19 12:39:48 | 97.3445 | 0.00037 | 13.0897 | 261.3146 | 139.1661 | 15.61391 | – |
| 2026 Apr 21 17:57 | 2026 Apr 19 12:39:48 | 97.3445 | 0.00037 | 13.0897 | 261.3146 | 139.1661 | 15.61391 | – |
| 2026 Apr 20 17:57 | 2026 Apr 19 12:39:48 | 97.3445 | 0.00037 | 13.0897 | 261.3146 | 139.1661 | 15.61391 | – |
| 2026 Apr 19 17:58 | 2026 Apr 19 12:39:48 | 97.3445 | 0.00037 | 13.0897 | 261.3146 | 139.1661 | 15.61391 | – |
| 2026 Apr 18 17:56 | 2026 Apr 13 07:19:46 | 97.3447 | 0.00035 | 12.6607 | 290.6586 | 139.1661 | 15.61391 | – |
| 2026 Apr 16 17:57 | 2026 Apr 13 07:19:46 | 97.3447 | 0.00035 | 12.6607 | 290.6586 | 139.1661 | 15.61391 | – |
| 2026 Apr 14 17:57 | 2026 Apr 13 07:19:46 | 97.3447 | 0.00035 | 12.6607 | 290.6586 | 139.1661 | 15.61391 | – |
| 2026 Apr 13 17:57 | 2026 Apr 13 07:19:46 | 97.3447 | 0.00035 | 12.6607 | 290.6586 | 139.1661 | 15.61391 | – |
| 2026 Apr 12 17:57 | 2026 Apr 08 14:54:57 | 97.3445 | 0.00035 | 12.3379 | 314.6617 | 139.1661 | 15.61391 | – |
| 2026 Apr 11 17:57 | 2026 Apr 08 14:54:57 | 97.3445 | 0.00035 | 12.3379 | 314.6617 | 139.1661 | 15.61391 | – |
| 2026 Apr 10 17:58 | 2026 Apr 08 14:54:57 | 97.3445 | 0.00035 | 12.3379 | 314.6617 | 139.1661 | 15.61391 | – |
| 2026 Apr 09 18:01 | 2026 Apr 08 14:54:57 | 97.3445 | 0.00035 | 12.3379 | 314.6617 | 139.1661 | 15.61391 | – |
| 2026 Apr 08 17:57 | 2026 Apr 08 14:54:57 | 97.3445 | 0.00035 | 12.3379 | 314.6617 | 139.1661 | 15.61391 | – |
| 2026 Apr 07 17:57 | 2026 Apr 02 07:56:52 | 97.3459 | 0.00035 | 11.9047 | 347.3048 | 139.1661 | 15.61391 | – |
| 2026 Apr 06 17:57 | 2026 Apr 02 07:56:52 | 97.3459 | 0.00035 | 11.9047 | 347.3048 | 139.1661 | 15.61391 | – |
| 2026 Apr 05 17:56 | 2026 Apr 02 07:56:52 | 97.3459 | 0.00035 | 11.9047 | 347.3048 | 139.1661 | 15.61391 | – |
| 2026 Apr 04 17:57 | 2026 Apr 02 07:56:52 | 97.3459 | 0.00035 | 11.9047 | 347.3048 | 139.1661 | 15.61391 | – |